ETNG

Geilenkirchen Airport

Germany
METAR ETNG 191850Z 03002KT 9999 BKN040 13/09 Q1025 NOSIG
Observed Flight Rules
Oct-19 @ 18:50 UTC (19 hours ago) Visual Flight Rules
Wind Visibility Clouds
30° at 2 knots 10,000+ meters
  • Broken at 4,000' AGL
Temperatures Readings
Current 13°C / 55°F
Dewpoint 9°C / 48°F
Humidity 77%
Altimeter 30.27" Hg
Pressure 1025 hPa
Elevation 98
METAR ETNG 191850Z 03002KT 9999 BKN040 13/09 Q1025 NOSIG
Observed Flight Rules
Oct-19 @ 18:50 UTC
(19 hours ago)
VFR
Wind Visibility
30° at 2 knots 10,000+ meters
Clouds
  • Broken at 4,000' AGL
Temperature Dewpoint
13°C / 55°F 9°C / 48°F
Humidity Altimeter Pressure
77% 30.27" Hg 1025 hPa